createdAt,value
2018-10-21T00:00:46.699Z,12.33
2018-10-21T00:03:15.151Z,15.00
2018-10-21T00:05:44.286Z,14.63
2018-10-21T00:08:12.662Z,13.50
2018-10-21T00:10:41.089Z,14.33
2018-10-21T00:13:09.455Z,14.20
2018-10-21T00:15:38.044Z,14.20
2018-10-21T00:18:06.305Z,14.53
2018-10-21T00:20:34.715Z,12.90
2018-10-21T00:23:03.972Z,15.10
2018-10-21T00:25:32.254Z,13.70
2018-10-21T00:28:00.535Z,14.00
2018-10-21T00:30:28.855Z,13.00
2018-10-21T00:32:57.213Z,14.30
2018-10-21T00:35:25.583Z,14.33
2018-10-21T00:37:53.953Z,15.13
2018-10-21T00:40:22.327Z,13.20
2018-10-21T00:42:50.710Z,13.87
2018-10-21T00:45:19.123Z,15.50
2018-10-21T00:47:47.526Z,13.77
2018-10-21T00:50:15.910Z,14.27
2018-10-21T00:52:44.297Z,14.30
2018-10-21T00:55:12.692Z,13.50
2018-10-21T00:57:41.083Z,14.00
2018-10-21T01:00:11.287Z,12.70
2018-10-21T01:02:39.783Z,14.80
2018-10-21T01:05:09.031Z,13.53
2018-10-21T01:07:37.400Z,17.70
2018-10-21T01:10:06.888Z,14.17
2018-10-21T01:12:35.429Z,14.87
2018-10-21T01:15:03.869Z,15.50
2018-10-21T01:17:32.311Z,15.97
2018-10-21T01:20:00.700Z,15.63
2018-10-21T01:22:29.131Z,15.33
2018-10-21T01:24:57.495Z,15.30
2018-10-21T01:27:25.849Z,14.53
2018-10-21T01:29:54.213Z,14.70
2018-10-21T01:32:22.579Z,15.60
2018-10-21T01:34:50.939Z,17.30
2018-10-21T01:37:19.356Z,16.10
2018-10-21T01:40:52.051Z,16.20
2018-10-21T01:43:27.875Z,15.30
2018-10-21T01:45:56.547Z,16.33
2018-10-21T01:48:25.919Z,16.87
2018-10-21T01:50:54.254Z,16.77
2018-10-21T01:53:22.842Z,15.87
2018-10-21T01:55:51.228Z,14.17
2018-10-21T01:58:19.611Z,14.30
2018-10-21T02:00:47.956Z,15.43
2018-10-21T02:03:16.544Z,15.70
2018-10-21T02:05:45.508Z,15.83
2018-10-21T02:08:13.819Z,14.90
2018-10-21T02:10:43.422Z,16.73
2018-10-21T02:13:11.826Z,16.97
2018-10-21T02:15:40.175Z,16.77
2018-10-21T02:18:08.510Z,17.37
2018-10-21T02:20:36.846Z,15.50
2018-10-21T02:23:05.244Z,14.90
2018-10-21T02:25:33.602Z,15.67
2018-10-21T02:28:01.975Z,16.60
2018-10-21T02:30:31.176Z,16.90
2018-10-21T02:33:00.427Z,15.00
2018-10-21T02:35:28.745Z,16.30
2018-10-21T02:37:57.760Z,15.60
2018-10-21T02:41:43.450Z,15.93
2018-10-21T02:44:13.435Z,14.37
2018-10-21T02:46:42.391Z,14.70
2018-10-21T02:49:11.632Z,13.93
2018-10-21T02:51:40.048Z,14.50
2018-10-21T02:54:08.802Z,16.93
2018-10-21T02:56:37.205Z,13.97
2018-10-21T02:59:06.403Z,15.07
2018-10-21T03:01:34.879Z,13.37
2018-10-21T03:04:03.336Z,14.53
2018-10-21T03:06:31.811Z,15.30
2018-10-21T03:09:00.331Z,14.30
2018-10-21T03:11:28.690Z,16.53
2018-10-21T03:13:57.113Z,16.60
2018-10-21T03:16:25.564Z,16.13
2018-10-21T03:18:54.107Z,15.67
2018-10-21T03:21:22.672Z,15.57
2018-10-21T03:23:50.975Z,15.73
2018-10-21T03:26:19.368Z,16.53
2018-10-21T03:28:47.851Z,15.70
2018-10-21T03:31:16.292Z,15.87
2018-10-21T03:33:44.917Z,16.30
2018-10-21T03:36:13.202Z,17.93
2018-10-21T03:38:41.747Z,16.73
2018-10-21T03:41:10.089Z,17.20
2018-10-21T03:43:38.527Z,16.63
2018-10-21T03:46:06.992Z,15.83
2018-10-21T03:48:35.520Z,16.53
2018-10-21T03:51:03.930Z,15.80
2018-10-21T03:53:32.452Z,16.50
2018-10-21T03:56:00.908Z,15.40
2018-10-21T03:58:29.375Z,16.40
2018-10-21T04:00:57.832Z,16.73
2018-10-21T04:03:26.246Z,18.87
2018-10-21T04:05:54.684Z,16.17
2018-10-21T04:08:23.254Z,16.80
2018-10-21T04:10:51.672Z,16.10
2018-10-21T04:13:20.058Z,17.17
2018-10-21T04:15:48.504Z,18.50
2018-10-21T04:18:16.800Z,16.30
2018-10-21T04:20:45.223Z,18.07
2018-10-21T04:23:13.602Z,18.27
2018-10-21T04:25:42.046Z,17.50
2018-10-21T04:28:10.802Z,16.07
2018-10-21T04:30:40.239Z,17.57
2018-10-21T04:34:10.672Z,19.30
2018-10-21T04:36:38.916Z,20.27
2018-10-21T04:41:16.916Z,19.03
2018-10-21T04:43:45.368Z,18.30
2018-10-21T04:46:13.839Z,18.33
2018-10-21T04:48:42.259Z,18.43
2018-10-21T04:51:10.669Z,19.93
2018-10-21T04:53:39.002Z,19.23
2018-10-21T04:56:07.319Z,19.87
2018-10-21T04:58:35.799Z,19.50
2018-10-21T05:01:07.464Z,18.43
2018-10-21T05:03:35.930Z,18.17
2018-10-21T05:06:04.202Z,18.37
2018-10-21T05:08:32.615Z,17.70
2018-10-21T05:11:00.977Z,18.57
2018-10-21T05:13:29.343Z,18.57
2018-10-21T05:15:57.762Z,18.70
2018-10-21T05:18:26.067Z,17.83
2018-10-21T05:20:54.415Z,19.63
2018-10-21T05:23:22.764Z,19.00
2018-10-21T05:25:51.163Z,20.80
2018-10-21T05:28:19.586Z,20.93
2018-10-21T05:30:48.038Z,20.67
2018-10-21T05:33:17.395Z,18.83
2018-10-21T05:35:45.768Z,20.73
2018-10-21T05:38:14.163Z,21.00
2018-10-21T05:40:42.809Z,19.30
2018-10-21T05:43:11.208Z,21.00
2018-10-21T05:45:39.731Z,21.77
2018-10-21T05:48:08.227Z,23.70
2018-10-21T05:50:36.771Z,22.50
2018-10-21T05:53:05.338Z,21.77
2018-10-21T05:55:33.862Z,24.30
2018-10-21T05:58:02.588Z,22.70
2018-10-21T06:00:30.977Z,22.70
2018-10-21T06:02:59.754Z,23.80
2018-10-21T06:05:40.657Z,23.37
2018-10-21T06:08:09.641Z,20.00
2018-10-21T06:10:38.171Z,19.60
2018-10-21T06:13:06.832Z,21.50
2018-10-21T06:15:35.501Z,21.37
2018-10-21T06:18:04.939Z,20.90
2018-10-21T06:20:36.927Z,21.57
2018-10-21T06:23:05.720Z,21.53
2018-10-21T06:25:34.275Z,19.87
2018-10-21T06:28:02.867Z,19.07
2018-10-21T06:30:31.682Z,17.20
2018-10-21T06:33:00.361Z,18.17
2018-10-21T06:35:28.802Z,19.20
2018-10-21T06:37:57.299Z,17.87
2018-10-21T06:40:26.199Z,17.27
2018-10-21T06:42:54.738Z,17.30
2018-10-21T06:45:23.377Z,18.00
2018-10-21T06:47:51.806Z,18.37
2018-10-21T06:50:21.082Z,18.90
2018-10-21T06:52:50.043Z,18.50
2018-10-21T06:55:18.635Z,19.33
2018-10-21T06:57:47.364Z,20.53
2018-10-21T07:00:15.924Z,19.67
2018-10-21T07:02:44.415Z,18.87
2018-10-21T07:05:24.796Z,17.47
2018-10-21T07:07:53.335Z,17.00
2018-10-21T07:10:21.775Z,19.50
2018-10-21T07:12:50.391Z,17.90
2018-10-21T07:15:19.195Z,18.93
2018-10-21T07:17:47.866Z,18.10
2018-10-21T07:20:16.466Z,17.63
2018-10-21T07:22:45.466Z,16.00
2018-10-21T07:25:13.926Z,16.93
2018-10-21T07:27:42.913Z,15.53
2018-10-21T07:30:12.610Z,15.03
2018-10-21T07:32:42.080Z,16.83
2018-10-21T07:35:14.034Z,16.80
2018-10-21T07:37:43.178Z,15.73
2018-10-21T07:40:12.537Z,15.97
2018-10-21T07:42:41.879Z,15.23
2018-10-21T07:45:10.982Z,22.20
2018-10-21T07:47:41.607Z,16.37
2018-10-21T07:50:11.231Z,15.80
2018-10-21T07:52:43.166Z,16.07
2018-10-21T07:55:16.426Z,16.20
2018-10-21T07:57:48.242Z,16.27
2018-10-21T08:02:53.797Z,14.67
2018-10-21T08:05:36.447Z,14.70
2018-10-21T08:08:17.435Z,16.20
2018-10-21T08:10:50.479Z,15.40
2018-10-21T08:13:21.134Z,15.00
2018-10-21T08:15:49.732Z,15.10
2018-10-21T08:18:18.705Z,16.90
2018-10-21T08:20:52.610Z,16.20
2018-10-21T08:23:21.161Z,16.60
2018-10-21T08:25:51.632Z,16.43
2018-10-21T08:28:20.157Z,16.40
2018-10-21T08:30:48.959Z,15.60
2018-10-21T08:33:18.380Z,16.10
2018-10-21T08:35:47.506Z,15.60
2018-10-21T08:38:15.972Z,15.17
2018-10-21T08:40:45.449Z,14.80
2018-10-21T08:43:16.333Z,15.47
2018-10-21T08:45:46.034Z,15.37
2018-10-21T08:48:18.011Z,15.03
2018-10-21T08:50:47.223Z,13.77
2018-10-21T08:53:24.460Z,13.50
2018-10-21T08:55:54.222Z,13.13
2018-10-21T08:58:23.852Z,12.90
2018-10-21T09:00:52.302Z,11.43
2018-10-21T09:06:08.259Z,11.50
2018-10-21T09:08:38.577Z,12.73
2018-10-21T09:11:08.157Z,12.07
2018-10-21T09:13:36.458Z,11.43
2018-10-21T09:16:05.828Z,11.77
2018-10-21T09:18:35.357Z,10.83
2018-10-21T09:21:04.020Z,10.10
2018-10-21T09:23:32.555Z,10.57
2018-10-21T09:26:00.908Z,9.67
2018-10-21T09:28:29.287Z,10.67
2018-10-21T09:30:57.663Z,9.80
2018-10-21T09:33:26.197Z,9.77
2018-10-21T09:35:54.570Z,8.43
2018-10-21T09:38:23.393Z,7.87
2018-10-21T09:40:51.807Z,8.57
2018-10-21T09:43:20.297Z,8.30
2018-10-21T09:45:48.651Z,8.17
2018-10-21T09:48:17.018Z,7.23
2018-10-21T09:50:45.621Z,8.80
2018-10-21T09:53:14.221Z,8.90
2018-10-21T09:55:42.651Z,9.10
2018-10-21T09:58:11.123Z,7.67
2018-10-21T10:00:44.670Z,7.27
2018-10-21T10:03:13.180Z,7.57
2018-10-21T10:05:41.515Z,6.40
2018-10-21T10:08:09.820Z,6.90
2018-10-21T10:10:38.207Z,6.80
2018-10-21T10:13:06.613Z,7.30
2018-10-21T10:15:34.972Z,7.67
2018-10-21T10:18:03.388Z,7.20
2018-10-21T10:20:31.811Z,6.20
2018-10-21T10:23:00.243Z,6.40
2018-10-21T10:25:28.666Z,7.07
2018-10-21T10:27:57.091Z,7.67
2018-10-21T10:30:25.633Z,7.60
2018-10-21T10:32:53.971Z,7.63
2018-10-21T10:35:22.328Z,8.80
2018-10-21T10:37:50.835Z,7.67
2018-10-21T10:40:19.432Z,8.37
2018-10-21T10:42:53.438Z,8.13
2018-10-21T10:45:21.951Z,9.10
2018-10-21T10:47:50.768Z,8.90
2018-10-21T10:50:19.300Z,10.57
2018-10-21T10:52:47.853Z,9.27
2018-10-21T10:55:16.330Z,10.47
2018-10-21T10:57:44.794Z,9.80
2018-10-21T11:00:13.300Z,9.30
2018-10-21T11:02:41.708Z,10.20
2018-10-21T11:05:10.626Z,9.83
2018-10-21T11:07:39.083Z,11.37
2018-10-21T11:10:08.523Z,9.53
2018-10-21T11:12:36.883Z,8.87
2018-10-21T11:15:06.117Z,9.37
2018-10-21T11:17:34.475Z,10.40
2018-10-21T11:20:03.016Z,8.60
2018-10-21T11:22:31.474Z,8.20
2018-10-21T11:24:59.920Z,8.00
2018-10-21T11:27:28.228Z,8.27
2018-10-21T11:29:57.803Z,8.60
2018-10-21T11:32:27.123Z,8.40
2018-10-21T11:34:55.527Z,8.53
2018-10-21T11:37:24.003Z,7.93
2018-10-21T11:39:52.467Z,7.40
2018-10-21T11:42:20.859Z,7.80
2018-10-21T11:44:49.405Z,7.00
2018-10-21T11:47:17.736Z,7.70
2018-10-21T11:49:46.080Z,7.00
2018-10-21T11:52:14.503Z,7.33
2018-10-21T11:54:42.855Z,7.60
2018-10-21T11:57:11.194Z,7.50
2018-10-21T11:59:39.587Z,7.37
2018-10-21T12:02:08.046Z,7.67
2018-10-21T12:04:36.411Z,7.23
2018-10-21T12:07:05.488Z,6.27
2018-10-21T12:09:34.001Z,6.23
2018-10-21T12:12:02.446Z,5.63
2018-10-21T12:14:30.876Z,6.57
2018-10-21T12:16:59.247Z,6.47
2018-10-21T12:19:27.731Z,6.27
2018-10-21T12:21:56.090Z,6.30
2018-10-21T12:24:24.414Z,6.00
2018-10-21T12:26:52.787Z,6.67
2018-10-21T12:29:21.158Z,7.00
2018-10-21T12:31:49.502Z,5.97
2018-10-21T12:34:17.850Z,7.30
2018-10-21T12:36:46.107Z,6.10
2018-10-21T12:39:14.378Z,6.50
2018-10-21T12:41:43.058Z,6.77
2018-10-21T12:44:12.401Z,5.57
2018-10-21T12:46:40.769Z,6.90
2018-10-21T12:49:09.116Z,5.97
2018-10-21T12:51:37.459Z,6.10
2018-10-21T12:54:06.907Z,5.60
2018-10-21T12:56:35.224Z,5.70
2018-10-21T12:59:03.549Z,5.80
2018-10-21T13:01:31.887Z,6.07
2018-10-21T13:04:00.211Z,5.67
2018-10-21T13:06:28.488Z,5.70
2018-10-21T13:08:56.762Z,6.67
2018-10-21T13:11:25.142Z,6.40
2018-10-21T13:13:53.462Z,6.00
2018-10-21T13:16:21.783Z,5.53
2018-10-21T13:18:50.143Z,4.80
2018-10-21T13:21:18.424Z,4.93
2018-10-21T13:23:46.778Z,6.00
2018-10-21T13:26:15.043Z,5.30
2018-10-21T13:28:43.366Z,5.20
2018-10-21T13:31:11.671Z,5.53
2018-10-21T13:33:39.970Z,5.30
2018-10-21T13:36:08.330Z,4.97
2018-10-21T13:38:36.700Z,4.73
2018-10-21T13:41:05.350Z,4.90
2018-10-21T13:43:33.781Z,5.40
2018-10-21T13:46:02.237Z,5.00
2018-10-21T13:48:30.570Z,4.57
2018-10-21T13:50:59.026Z,5.60
2018-10-21T13:53:27.570Z,5.53
2018-10-21T13:55:56.003Z,5.50
2018-10-21T13:58:24.473Z,6.53
2018-10-21T14:00:53.066Z,5.17
2018-10-21T14:03:21.584Z,4.57
2018-10-21T14:05:49.994Z,5.00
2018-10-21T14:08:18.623Z,5.53
2018-10-21T14:10:47.150Z,5.27
2018-10-21T14:13:15.613Z,5.37
2018-10-21T14:15:43.935Z,5.30
2018-10-21T14:18:12.286Z,5.30
2018-10-21T14:20:40.671Z,5.00
2018-10-21T14:23:09.135Z,5.50
2018-10-21T14:25:37.575Z,6.30
2018-10-21T14:28:06.106Z,6.20
2018-10-21T14:30:34.609Z,6.87
2018-10-21T14:33:02.995Z,5.53
2018-10-21T14:35:31.439Z,5.57
2018-10-21T14:37:59.992Z,6.73
2018-10-21T14:40:28.325Z,5.70
2018-10-21T14:42:56.824Z,5.97
2018-10-21T14:45:25.227Z,6.00
2018-10-21T14:47:53.606Z,6.27
2018-10-21T14:50:21.971Z,6.27
2018-10-21T14:52:50.402Z,5.50
2018-10-21T14:55:18.928Z,5.80
2018-10-21T14:57:47.188Z,5.40
2018-10-21T15:00:15.657Z,5.53
2018-10-21T15:02:43.966Z,5.40
2018-10-21T15:05:13.346Z,5.13
2018-10-21T15:07:42.984Z,5.90
2018-10-21T15:10:11.891Z,4.83
2018-10-21T15:12:40.243Z,5.47
2018-10-21T15:15:10.500Z,5.17
2018-10-21T15:17:39.071Z,5.20
2018-10-21T15:20:09.289Z,4.63
2018-10-21T15:22:37.600Z,5.10
2018-10-21T15:25:08.121Z,4.90
2018-10-21T15:27:36.426Z,4.83
2018-10-21T15:30:05.639Z,4.63
2018-10-21T15:32:33.959Z,4.47
2018-10-21T15:35:02.425Z,4.10
2018-10-21T15:37:30.787Z,4.70
2018-10-21T15:39:59.277Z,4.73
2018-10-21T15:42:27.562Z,4.50
2018-10-21T15:44:55.806Z,4.37
2018-10-21T15:47:24.138Z,3.93
2018-10-21T15:49:52.443Z,4.30
2018-10-21T15:52:21.091Z,5.43
2018-10-21T15:54:49.338Z,4.10
2018-10-21T15:57:17.649Z,5.10
2018-10-21T15:59:46.213Z,5.20
2018-10-21T16:02:14.604Z,4.20
2018-10-21T16:04:42.796Z,5.03
2018-10-21T16:07:11.171Z,4.20
2018-10-21T16:09:39.631Z,7.17
2018-10-21T16:12:08.055Z,5.20
2018-10-21T16:14:36.613Z,5.03
2018-10-21T16:17:05.339Z,5.20
2018-10-21T16:19:33.846Z,4.80
2018-10-21T16:22:02.557Z,4.90
2018-10-21T16:24:30.950Z,4.53
2018-10-21T16:26:59.457Z,4.97
2018-10-21T16:29:27.915Z,4.20
2018-10-21T16:31:56.428Z,3.90
2018-10-21T16:34:24.795Z,4.53
2018-10-21T16:36:53.230Z,4.60
2018-10-21T16:39:21.751Z,6.80
2018-10-21T16:41:50.185Z,5.00
2018-10-21T16:44:18.674Z,5.17
2018-10-21T16:46:47.239Z,5.60
2018-10-21T16:49:15.795Z,5.90
2018-10-21T16:51:44.170Z,5.97
2018-10-21T16:54:12.700Z,5.17
2018-10-21T16:56:41.110Z,5.83
2018-10-21T16:59:09.563Z,5.83
2018-10-21T17:01:38.044Z,6.57
2018-10-21T17:04:06.847Z,6.37
2018-10-21T17:06:35.315Z,5.97
2018-10-21T17:09:03.904Z,6.30
2018-10-21T17:11:32.328Z,6.40
2018-10-21T17:14:00.794Z,6.40
2018-10-21T17:16:29.303Z,6.10
2018-10-21T17:18:57.757Z,5.73
2018-10-21T17:21:26.216Z,5.90
2018-10-21T17:23:54.751Z,5.73
2018-10-21T17:26:23.215Z,6.30
2018-10-21T17:28:51.705Z,7.20
2018-10-21T17:31:20.123Z,7.53
2018-10-21T17:33:48.558Z,7.57
2018-10-21T17:36:17.012Z,8.47
2018-10-21T17:38:45.455Z,6.87
2018-10-21T17:41:13.915Z,7.77
2018-10-21T17:43:42.355Z,7.20
2018-10-21T17:46:10.865Z,6.77
2018-10-21T17:48:39.138Z,6.60
2018-10-21T17:51:07.606Z,6.33
2018-10-21T17:53:35.959Z,5.90
2018-10-21T17:56:05.672Z,6.13
2018-10-21T17:58:34.978Z,6.13
2018-10-21T18:01:03.229Z,7.60
2018-10-21T18:03:31.610Z,6.90
2018-10-21T18:05:59.987Z,27.07
2018-10-21T18:08:28.416Z,21.47
2018-10-21T18:10:56.803Z,9.17
2018-10-21T18:13:25.196Z,24.93
2018-10-21T18:15:53.646Z,12.30
2018-10-21T18:18:21.991Z,13.87
2018-10-21T18:20:50.479Z,10.70
2018-10-21T18:23:18.971Z,10.27
2018-10-21T18:25:47.483Z,7.93
2018-10-21T18:28:16.018Z,6.73
2018-10-21T18:30:44.451Z,5.83
2018-10-21T18:33:12.954Z,7.23
2018-10-21T18:35:41.462Z,6.57
2018-10-21T18:38:09.850Z,6.60
2018-10-21T18:40:38.334Z,7.53
2018-10-21T18:43:06.841Z,6.57
2018-10-21T18:45:35.335Z,7.50
2018-10-21T18:48:03.719Z,5.87
2018-10-21T18:50:32.201Z,7.10
2018-10-21T18:53:00.735Z,7.40
2018-10-21T18:55:29.257Z,7.00
2018-10-21T18:57:57.710Z,6.80
2018-10-21T19:00:26.170Z,7.37
2018-10-21T19:02:54.572Z,6.27
2018-10-21T19:05:23.059Z,7.03
2018-10-21T19:07:51.547Z,6.80
2018-10-21T19:10:19.942Z,6.77
2018-10-21T19:12:59.572Z,6.80
2018-10-21T19:15:16.927Z,7.20
2018-10-21T19:17:45.379Z,7.10
2018-10-21T19:20:15.891Z,7.03
2018-10-21T19:22:44.162Z,7.17
2018-10-21T19:25:13.849Z,6.73
2018-10-21T19:27:42.771Z,6.40
2018-10-21T19:30:12.279Z,7.10
2018-10-21T19:32:41.206Z,7.17
2018-10-21T19:35:11.020Z,6.53
2018-10-21T19:37:39.990Z,6.90
2018-10-21T19:40:09.707Z,6.63
2018-10-21T19:42:38.106Z,7.70
2018-10-21T19:45:07.309Z,6.83
2018-10-21T19:47:35.683Z,7.40
2018-10-21T19:50:04.163Z,7.07
2018-10-21T19:52:32.583Z,7.17
2018-10-21T19:55:01.072Z,7.53
2018-10-21T19:57:29.550Z,8.63
2018-10-21T19:59:58.128Z,7.23
2018-10-21T20:02:26.832Z,7.83
2018-10-21T20:04:55.266Z,8.20
2018-10-21T20:07:23.814Z,7.90
2018-10-21T20:09:52.331Z,7.50
2018-10-21T20:12:21.043Z,8.37
2018-10-21T20:14:49.443Z,7.87
2018-10-21T20:17:17.842Z,7.30
2018-10-21T20:19:47.324Z,7.63
2018-10-21T20:22:15.878Z,7.37
2018-10-21T20:24:44.271Z,8.80
2018-10-21T20:27:12.719Z,7.67
2018-10-21T20:29:41.196Z,6.40
2018-10-21T20:32:09.723Z,7.10
2018-10-21T20:34:38.151Z,7.10
2018-10-21T20:37:06.578Z,7.20
2018-10-21T20:39:35.067Z,7.43
2018-10-21T20:42:03.720Z,7.60
2018-10-21T20:44:32.135Z,7.53
2018-10-21T20:47:00.660Z,8.00
2018-10-21T20:49:29.099Z,7.77
2018-10-21T20:51:57.569Z,8.50
2018-10-21T20:54:32.091Z,8.27
2018-10-21T20:57:05.247Z,7.57
2018-10-21T20:59:33.566Z,8.67
2018-10-21T21:02:01.831Z,8.10
2018-10-21T21:04:30.231Z,7.17
2018-10-21T21:06:58.852Z,6.87
2018-10-21T21:09:27.395Z,7.70
2018-10-21T21:11:55.888Z,10.77
2018-10-21T21:14:24.403Z,8.30
2018-10-21T21:16:52.863Z,8.67
2018-10-21T21:19:21.340Z,7.33
2018-10-21T21:21:50.015Z,7.80
2018-10-21T21:24:18.571Z,8.40
2018-10-21T21:26:47.581Z,8.40
2018-10-21T21:29:16.023Z,8.97
2018-10-21T21:31:45.204Z,7.80
2018-10-21T21:34:14.030Z,8.87
2018-10-21T21:36:42.415Z,8.90
2018-10-21T21:39:12.771Z,8.00
2018-10-21T21:41:42.414Z,9.07
2018-10-21T21:44:10.855Z,9.20
2018-10-21T21:46:40.003Z,8.47
2018-10-21T21:49:09.452Z,8.47
2018-10-21T21:51:38.107Z,8.47
2018-10-21T21:54:07.402Z,8.77
2018-10-21T21:56:35.798Z,7.47
2018-10-21T21:59:04.243Z,8.50
2018-10-21T22:01:32.690Z,8.33
2018-10-21T22:04:01.155Z,8.47
2018-10-21T22:06:29.617Z,7.50
2018-10-21T22:08:58.216Z,7.80
2018-10-21T22:11:26.707Z,8.60
2018-10-21T22:13:55.150Z,8.07
2018-10-21T22:16:23.611Z,8.37
2018-10-21T22:18:51.988Z,8.53
2018-10-21T22:21:20.443Z,9.30
2018-10-21T22:23:48.876Z,8.20
2018-10-21T22:26:17.355Z,9.40
2018-10-21T22:28:45.839Z,9.50
2018-10-21T22:31:14.361Z,9.00
2018-10-21T22:33:42.762Z,8.90
2018-10-21T22:36:11.381Z,8.70
2018-10-21T22:38:39.631Z,8.13
2018-10-21T22:41:08.090Z,8.90
2018-10-21T22:43:36.663Z,8.00
2018-10-21T22:46:05.257Z,8.40
2018-10-21T22:48:33.815Z,8.00
2018-10-21T22:51:02.198Z,8.83
2018-10-21T22:53:30.839Z,8.40
2018-10-21T22:55:59.286Z,8.47
2018-10-21T22:58:27.735Z,9.63
2018-10-21T23:00:56.219Z,9.87
2018-10-21T23:03:24.710Z,8.13
2018-10-21T23:05:53.099Z,9.47
2018-10-21T23:08:21.652Z,9.00
2018-10-21T23:10:50.011Z,8.53
2018-10-21T23:13:18.383Z,8.43
2018-10-21T23:15:46.815Z,7.70
2018-10-21T23:18:15.305Z,8.70
2018-10-21T23:20:43.638Z,8.43
2018-10-21T23:23:12.056Z,9.23
2018-10-21T23:25:40.531Z,7.93
2018-10-21T23:28:09.038Z,8.13
2018-10-21T23:30:37.431Z,7.57
2018-10-21T23:33:05.831Z,8.10
2018-10-21T23:35:34.250Z,7.03
2018-10-21T23:38:02.715Z,9.03
2018-10-21T23:40:31.218Z,8.70
2018-10-21T23:42:59.694Z,8.50
2018-10-21T23:45:28.079Z,8.40
2018-10-21T23:47:56.461Z,8.60
2018-10-21T23:50:24.839Z,7.40
2018-10-21T23:52:53.219Z,8.10
2018-10-21T23:55:21.603Z,8.13
2018-10-21T23:57:49.971Z,9.40
